Stolt Surf — ZCSR3 — position and weather

sailwx.info

Track history (hours):
 
Tides and Currents Weather Stations Pressure Air Temp Water Temp Dewpoint Dewpoint Depression Visibility Wind Speed Wind Dir Waves Ship Positions

Stolt Surf

Last reported at 2017-Jul-18 03:34 UTC. Time now 2017-Aug-19 07:28 UTC.
Position N 36°11' E 014°48'.
Warning: this ship's position is 32 days out of date.

Length 163 m; draft 9.8 m.

Type: Ship. MMSI: 319545000.

Date/timePositionNaut miles runAvg speedWind from/ knotsBaromVisibWave heightAir tempDewpointWater temp
2017-Jul-18 03:34N 36°11' E 014°48'115.3
2017-Jul-18 03:30N 36°11' E 014°47'815.2
2017-Jul-18 03:00N 36°13' E 014°38'815.3
2017-Jul-18 02:30N 36°16' E 014°29'715.1
2017-Jul-18 02:00N 36°18' E 014°20'815.0
2017-Jul-18 01:30N 36°20' E 014°11'815.0
2017-Jul-18 01:00N 36°22' E 014°02'815.0
2017-Jul-18 00:29N 36°24' E 013°53'714.9
2017-Jul-18 00:00N 36°25' E 013°44'815.0
2017-Jul-17 23:29N 36°28' E 013°35'815.0
2017-Jul-17 22:58N 36°31' E 013°26'714.8
2017-Jul-17 22:30N 36°33' E 013°18'4614.3
2017-Jul-17 19:18N 36°50' E 012°25'714.3
2017-Jul-17 18:50N 36°54' E 012°18'51914.9
2017-Jul-16 08:00N 36°56' E 001°28'2415.0
2017-Jul-16 06:23N 36°50' E 000°58'615.5
2017-Jul-16 06:00N 36°48' E 000°52'815.3
2017-Jul-16 05:30N 36°47' E 000°42'714.9
2017-Jul-16 05:00N 36°45' E 000°33'714.5
2017-Jul-16 04:30N 36°44' E 000°24'814.4
2017-Jul-16 03:56N 36°42' E 000°14'8714.8
2017-Jul-15 22:02N 36°21' W 001°31'115.1
2017-Jul-15 21:58N 36°21' W 001°33'27014.8
2017-Jul-15 03:39N 36°03' W 007°07'314.2
2017-Jul-15 03:29N 36°04' W 007°10'714.5
2017-Jul-15 03:00N 36°05' W 007°18'714.8
2017-Jul-15 02:31N 36°07' W 007°27'815.2
2017-Jul-15 02:00N 36°09' W 007°36'815.6
2017-Jul-15 01:30N 36°10' W 007°46'815.6
2017-Jul-15 01:01N 36°12' W 007°55'815.5
2017-Jul-15 00:30N 36°14' W 008°04'815.2
2017-Jul-15 00:00N 36°16' W 008°13'815.1
2017-Jul-14 23:30N 36°18' W 008°23'715.1
2017-Jul-14 23:00N 36°20' W 008°32'815.2
2017-Jul-14 22:30N 36°22' W 008°41'714.9
2017-Jul-14 22:00N 36°23' W 008°50'714.7
2017-Jul-14 21:30N 36°25' W 008°59'714.6
2017-Jul-14 21:00N 36°27' W 009°08'714.4
2017-Jul-14 20:30N 36°28' W 009°16'714.0
2017-Jul-14 20:00N 36°32' W 009°24'714.5
2017-Jul-14 19:30N 36°37' W 009°30'714.7
2017-Jul-14 19:00N 36°43' W 009°36'714.4
2017-Jul-14 18:31N 36°49' W 009°39'714.8
2017-Jul-14 18:00N 36°57' W 009°42'815.1
2017-Jul-14 17:30N 37°04' W 009°45'815.2
2017-Jul-14 17:01N 37°11' W 009°47'815.1
2017-Jul-14 16:30N 37°18' W 009°49'1515.0
2017-Jul-14 15:30N 37°33' W 009°51'814.9
2017-Jul-14 15:00N 37°41' W 009°53'815.1
2017-Jul-14 14:30N 37°48' W 009°56'714.7
2017-Jul-14 14:01N 37°55' W 009°58'714.9
2017-Jul-14 13:30N 38°02' W 010°01'714.9
2017-Jul-14 13:00N 38°09' W 010°03'714.9
2017-Jul-14 12:30N 38°17' W 010°05'714.4
2017-Jul-14 12:00N 38°24' W 010°07'714.2
2017-Jul-14 11:30N 38°31' W 010°09'714.1
2017-Jul-14 11:00N 38°38' W 010°11'714.1
2017-Jul-14 10:30N 38°45' W 010°12'714.4
2017-Jul-14 10:00N 38°52' W 010°12'714.4
2017-Jul-14 09:30N 38°59' W 010°12'714.3
2017-Jul-14 09:00N 39°06' W 010°12'714.3
2017-Jul-14 08:30N 39°13' W 010°12'713.7
2017-Jul-14 08:00N 39°20' W 010°12'713.8
2017-Jul-14 07:30N 39°27' W 010°12'713.9
2017-Jul-14 07:00N 39°34' W 010°12'713.9
2017-Jul-14 06:30N 39°41' W 010°13'714.9
2017-Jul-14 06:00N 39°48' W 010°12'815.0
2017-Jul-14 05:30N 39°56' W 010°12'815.2
2017-Jul-14 05:01N 40°03' W 010°12'815.1
2017-Jul-14 04:30N 40°11' W 010°12'714.6
2017-Jul-14 04:00N 40°18' W 010°11'714.8
2017-Jul-14 03:30N 40°26' W 010°12'815.1
2017-Jul-14 03:00N 40°33' W 010°12'815.1
2017-Jul-14 02:30N 40°41' W 010°12'815.0
2017-Jul-14 02:00N 40°48' W 010°12'815.0
2017-Jul-14 01:28N 40°56' W 010°12'714.9
2017-Jul-14 01:00N 41°03' W 010°12'815.1
2017-Jul-14 00:30N 41°11' W 010°12'2915.1
2017-Jul-13 22:35N 41°40' W 010°12'215.6
2017-Jul-13 22:29N 41°41' W 010°12'1615.2
2017-Jul-13 21:28N 41°57' W 010°12'60913.5
2017-Jul-12 00:26N 50°13' W 001°43'512.3
2017-Jul-12 00:00N 50°15' W 001°35'611.4
2017-Jul-11 23:30N 50°16' W 001°26'710.9
2017-Jul-11 22:51N 50°18' W 001°16'2710.2
2017-Jul-11 20:12N 50°25' W 000°35'512.0
2017-Jul-11 19:45N 50°27' W 000°27'312.8
2017-Jul-11 19:30N 50°27' W 000°22'713.6
2017-Jul-11 19:00N 50°29' W 000°12'714.3
2017-Jul-11 18:30N 50°30' W 000°01'714.7
2017-Jul-11 18:00N 50°33' E 000°10'3814.0
2017-Jul-11 15:20N 50°50' E 001°03'412.5
2017-Jul-11 15:00N 50°53' E 001°07'612.1
2017-Jul-11 14:30N 50°57' E 001°14'611.2
2017-Jul-11 14:00N 51°01' E 001°21'510.6
2017-Jul-11 13:30N 51°04' E 001°27'510.2
2017-Jul-11 13:00N 51°08' E 001°33'611.3
2017-Jul-11 12:30N 51°11' E 001°40'612.0
2017-Jul-11 12:00N 51°15' E 001°47'713.1
2017-Jul-11 11:30N 51°21' E 001°53'612.8
2017-Jul-11 11:00N 51°24' E 002°02'713.5
2017-Jul-11 10:31N 51°22' E 002°11'713.4
2017-Jul-11 10:00N 51°21' E 002°22'714.5
2017-Jul-11 09:31N 51°23' E 002°34'713.7
2017-Jul-11 09:01N 51°22' E 002°45'612.6
2017-Jul-11 08:31N 51°23' E 002°55'714.0
2017-Jul-11 08:01N 51°24' E 003°06'714.9
2017-Jul-11 07:31N 51°25' E 003°17'815.4
2017-Jul-11 07:01N 51°25' E 003°30'5 9.8
2017-Jul-11 06:30N 51°26' E 003°38'713.9
2017-Jul-11 06:00N 51°22' E 003°46'714.2
2017-Jul-11 05:30N 51°24' E 003°57'3 6.9
2017-Jul-11 05:00N 51°23' E 004°02'612.6
2017-Jul-11 04:30N 51°24' E 004°12'4 8.1
2017-Jul-11 04:00N 51°21' E 004°17'0 0.1
2017-Jul-11 03:30N 51°21' E 004°17'0 0.0
2017-Jul-11 03:00N 51°21' E 004°17'1 2.1
2017-Jul-11 02:30N 51°20' E 004°18'4 7.2
2017-Jul-11 02:00N 51°17' E 004°21'1 2.8
2017-Jul-11 01:29N 51°15' E 004°22'0 0.0
2017-Jul-11 01:00N 51°15' E 004°22'0 0.0
2017-Jul-11 00:29N 51°15' E 004°22'0 0.0
2017-Jul-10 23:57N 51°15' E 004°22'0 0.0
2017-Jul-10 23:26N 51°15' E 004°22'0 0.0
2017-Jul-10 23:00N 51°15' E 004°22'0 0.0
2017-Jul-10 22:29N 51°15' E 004°22'0 0.0
2017-Jul-10 21:59N 51°15' E 004°22'0 0.0
2017-Jul-10 21:29N 51°15' E 004°22'0 0.0
2017-Jul-10 20:59N 51°15' E 004°22'0 0.0
2017-Jul-10 20:29N 51°15' E 004°22'0 0.0
2017-Jul-10 19:56N 51°15' E 004°22'0 0.0
2017-Jul-10 19:29N 51°15' E 004°22'0 0.0
2017-Jul-10 18:59N 51°15' E 004°22'0 0.0
2017-Jul-10 18:29N 51°15' E 004°22'0 0.0
2017-Jul-10 17:59N 51°15' E 004°22'0 0.0
2017-Jul-10 17:26N 51°15' E 004°22'0 0.0
2017-Jul-10 16:59N 51°15' E 004°22'0 0.0
2017-Jul-10 16:30N 51°15' E 004°22'0 0.0
2017-Jul-10 15:59N 51°15' E 004°22'0 0.0
2017-Jul-10 15:30N 51°15' E 004°22'0 0.0
2017-Jul-10 14:59N 51°15' E 004°22'0 0.0
2017-Jul-10 14:29N 51°15' E 004°22'0 0.0
2017-Jul-10 13:59N 51°15' E 004°22'0 0.0
2017-Jul-10 13:29N 51°15' E 004°22'0 0.0
2017-Jul-10 12:59N 51°15' E 004°22'0 0.0
2017-Jul-10 12:29N 51°15' E 004°22'0 0.0
2017-Jul-10 11:59N 51°15' E 004°22'0 0.0
2017-Jul-10 11:26N 51°15' E 004°22'0 0.0
2017-Jul-10 10:59N 51°15' E 004°22'0 0.0
2017-Jul-10 10:26N 51°15' E 004°22'0 0.0
2017-Jul-10 09:59N 51°15' E 004°22'0 0.0
2017-Jul-10 09:29N 51°15' E 004°22'0 0.0
2017-Jul-10 08:56N 51°15' E 004°22'0 0.0
2017-Jul-10 08:29N 51°15' E 004°22'0 0.0
2017-Jul-10 07:53N 51°15' E 004°22'0 0.0
2017-Jul-10 07:29N 51°15' E 004°22'0 0.0
2017-Jul-10 06:59N 51°15' E 004°22'0 0.0
2017-Jul-10 06:29N 51°15' E 004°22'0 0.0
2017-Jul-10 05:56N 51°15' E 004°22'0 0.0
2017-Jul-10 05:30N 51°15' E 004°22'0 0.0
2017-Jul-10 05:00N 51°15' E 004°22'0 0.0
2017-Jul-10 04:26N 51°15' E 004°22'0 0.0
2017-Jul-10 03:56N 51°15' E 004°22'0 0.0
2017-Jul-10 03:30N 51°15' E 004°22'0 0.0
2017-Jul-10 02:56N 51°15' E 004°22'0 0.0
2017-Jul-10 02:23N 51°15' E 004°22'0 0.0
2017-Jul-10 02:00N 51°15' E 004°22'0 0.0
2017-Jul-10 01:29N 51°15' E 004°22'0 0.0
2017-Jul-10 00:59N 51°15' E 004°22'0 0.0
2017-Jul-10 00:29N 51°15' E 004°22'0 0.0
2017-Jul-09 23:56N 51°15' E 004°22'0 0.0
2017-Jul-09 23:26N 51°15' E 004°22'0 0.0
2017-Jul-09 22:59N 51°15' E 004°22'0 0.0
2017-Jul-09 22:29N 51°15' E 004°22'0 0.0
2017-Jul-09 21:59N 51°15' E 004°22'0 0.0
2017-Jul-09 21:26N 51°15' E 004°22'0 0.0
2017-Jul-09 20:59N 51°15' E 004°22'0 0.0
2017-Jul-09 20:29N 51°15' E 004°22'0 0.0
2017-Jul-09 19:56N 51°15' E 004°22'0 0.0
2017-Jul-09 19:29N 51°15' E 004°22'0 0.0
2017-Jul-09 18:59N 51°15' E 004°22'0 0.0
2017-Jul-09 18:29N 51°15' E 004°22'0 0.0
2017-Jul-09 17:59N 51°15' E 004°22'0 0.0
2017-Jul-09 17:29N 51°15' E 004°22'0 0.0
2017-Jul-09 16:59N 51°15' E 004°22'0 0.0
2017-Jul-09 16:29N 51°15' E 004°22'0 0.0
2017-Jul-09 15:59N 51°15' E 004°22'0 0.0
2017-Jul-09 15:29N 51°15' E 004°22'0 0.0
2017-Jul-09 14:56N 51°15' E 004°22'0 0.0
2017-Jul-09 14:29N 51°15' E 004°22'0 0.0
2017-Jul-09 14:00N 51°15' E 004°22'0 0.0
2017-Jul-09 13:26N 51°15' E 004°22'0 0.0
2017-Jul-09 13:00N 51°15' E 004°22'0 0.0
2017-Jul-09 12:29N 51°15' E 004°22'0 0.0
2017-Jul-09 11:59N 51°15' E 004°22'0 0.0
2017-Jul-09 11:29N 51°15' E 004°22'0 0.0
2017-Jul-09 10:59N 51°15' E 004°22'0 0.0
2017-Jul-09 10:27N 51°15' E 004°22'0 0.0
2017-Jul-09 09:59N 51°15' E 004°22'0 0.0
2017-Jul-09 09:30N 51°15' E 004°22'0 0.0
2017-Jul-09 08:59N 51°15' E 004°22'0 0.0
2017-Jul-09 08:26N 51°15' E 004°22'0 0.0
2017-Jul-09 07:59N 51°15' E 004°22'0 0.0
2017-Jul-09 07:29N 51°15' E 004°22'0 0.0
2017-Jul-09 06:59N 51°15' E 004°22'0 0.0
2017-Jul-09 06:29N 51°15' E 004°22'0 0.0
2017-Jul-09 06:00N 51°15' E 004°22'0 0.0
2017-Jul-09 05:29N 51°15' E 004°22'0 0.0
2017-Jul-09 04:59N 51°15' E 004°22'0 0.0
2017-Jul-09 04:26N 51°15' E 004°22'0 0.0
2017-Jul-09 03:59N 51°15' E 004°22'0 0.0
2017-Jul-09 03:29N 51°15' E 004°22'0 0.0
2017-Jul-09 02:59N 51°15' E 004°22'0 0.0
2017-Jul-09 02:29N 51°15' E 004°22'0 0.0
2017-Jul-09 01:59N 51°15' E 004°22'0 0.0
2017-Jul-09 01:29N 51°15' E 004°22'0 0.0
2017-Jul-09 00:59N 51°15' E 004°22'0 0.0
2017-Jul-09 00:29N 51°15' E 004°22'0 0.0
2017-Jul-08 23:59N 51°15' E 004°22'0 0.0
2017-Jul-08 23:29N 51°15' E 004°22'0 0.0
2017-Jul-08 22:59N 51°15' E 004°22'0 0.0
2017-Jul-08 22:30N 51°15' E 004°22'0 0.1
2017-Jul-08 22:00N 51°15' E 004°22'0 0.9
2017-Jul-08 21:28N 51°15' E 004°21'0 0.0
2017-Jul-08 20:55N 51°15' E 004°21'0 0.0
2017-Jul-08 20:28N 51°15' E 004°21'0 0.0
2017-Jul-08 19:58N 51°15' E 004°21'0 0.0
2017-Jul-08 19:28N 51°15' E 004°21'0 0.0
2017-Jul-08 18:58N 51°15' E 004°21'0 0.0
2017-Jul-08 18:28N 51°15' E 004°21'0 0.0
2017-Jul-08 17:58N 51°15' E 004°21'0 0.0
2017-Jul-08 17:25N 51°15' E 004°21'0 0.0
2017-Jul-08 16:58N 51°15' E 004°21'0 0.0
2017-Jul-08 16:25N 51°15' E 004°21'0 0.0
2017-Jul-08 15:55N 51°15' E 004°21'0 0.0
2017-Jul-08 15:25N 51°15' E 004°21'0 0.0
2017-Jul-08 14:58N 51°15' E 004°21'0 0.0
2017-Jul-08 13:58N 51°15' E 004°21'0 0.0
2017-Jul-08 13:22N 51°15' E 004°21'0 0.0
2017-Jul-08 12:58N 51°15' E 004°21'0 0.0
2017-Jul-08 12:28N 51°15' E 004°21'0 0.0
2017-Jul-08 11:58N 51°15' E 004°21'0 0.0
2017-Jul-08 11:28N 51°15' E 004°21'0 0.0
2017-Jul-08 10:58N 51°15' E 004°21'0 0.0
2017-Jul-08 10:28N 51°15' E 004°21'0 0.0
2017-Jul-08 09:58N 51°15' E 004°21'0 0.0
2017-Jul-08 09:28N 51°15' E 004°21'0 0.0
2017-Jul-08 08:55N 51°15' E 004°21'0 0.0
2017-Jul-08 08:28N 51°15' E 004°21'0 0.0
2017-Jul-08 07:58N 51°15' E 004°21'0 0.0
2017-Jul-08 07:28N 51°15' E 004°21'0 0.0
2017-Jul-08 06:58N 51°15' E 004°21'0 0.0
2017-Jul-08 06:25N 51°15' E 004°21'0 0.0
2017-Jul-08 05:58N 51°15' E 004°21'0 0.0
2017-Jul-08 05:28N 51°15' E 004°21'0 0.0
2017-Jul-08 04:58N 51°15' E 004°21'0 0.0
2017-Jul-08 04:28N 51°15' E 004°21'0 0.0
2017-Jul-08 03:58N 51°15' E 004°21'  
Track history (hours):
 
Tides and Currents Weather Stations Pressure Air Temp Water Temp Dewpoint Dewpoint Depression Visibility Wind Speed Wind Dir Waves Ship Positions

Stolt Surf

Last reported at 2017-Jul-18 03:34 UTC. Time now 2017-Aug-19 07:28 UTC.
Position N 36°11' E 014°48'.
Warning: this ship's position is 32 days out of date.

Length 163 m; draft 9.8 m.

Type: Ship. MMSI: 319545000.

Date/timePositionNaut miles runAvg speedWind from/ knotsBaromVisibWave heightAir tempDewpointWater temp
2017-Jul-18 03:34N 36°11' E 014°48'115.3
2017-Jul-18 03:30N 36°11' E 014°47'815.2
2017-Jul-18 03:00N 36°13' E 014°38'815.3
2017-Jul-18 02:30N 36°16' E 014°29'715.1
2017-Jul-18 02:00N 36°18' E 014°20'815.0
2017-Jul-18 01:30N 36°20' E 014°11'815.0
2017-Jul-18 01:00N 36°22' E 014°02'815.0
2017-Jul-18 00:29N 36°24' E 013°53'714.9
2017-Jul-18 00:00N 36°25' E 013°44'815.0
2017-Jul-17 23:29N 36°28' E 013°35'815.0
2017-Jul-17 22:58N 36°31' E 013°26'714.8
2017-Jul-17 22:30N 36°33' E 013°18'4614.3
2017-Jul-17 19:18N 36°50' E 012°25'714.3
2017-Jul-17 18:50N 36°54' E 012°18'51914.9
2017-Jul-16 08:00N 36°56' E 001°28'2415.0
2017-Jul-16 06:23N 36°50' E 000°58'615.5
2017-Jul-16 06:00N 36°48' E 000°52'815.3
2017-Jul-16 05:30N 36°47' E 000°42'714.9
2017-Jul-16 05:00N 36°45' E 000°33'714.5
2017-Jul-16 04:30N 36°44' E 000°24'814.4
2017-Jul-16 03:56N 36°42' E 000°14'8714.8
2017-Jul-15 22:02N 36°21' W 001°31'115.1
2017-Jul-15 21:58N 36°21' W 001°33'27014.8
2017-Jul-15 03:39N 36°03' W 007°07'314.2
2017-Jul-15 03:29N 36°04' W 007°10'714.5
2017-Jul-15 03:00N 36°05' W 007°18'714.8
2017-Jul-15 02:31N 36°07' W 007°27'815.2
2017-Jul-15 02:00N 36°09' W 007°36'815.6
2017-Jul-15 01:30N 36°10' W 007°46'815.6
2017-Jul-15 01:01N 36°12' W 007°55'815.5
2017-Jul-15 00:30N 36°14' W 008°04'815.2
2017-Jul-15 00:00N 36°16' W 008°13'815.1
2017-Jul-14 23:30N 36°18' W 008°23'715.1
2017-Jul-14 23:00N 36°20' W 008°32'815.2
2017-Jul-14 22:30N 36°22' W 008°41'714.9
2017-Jul-14 22:00N 36°23' W 008°50'714.7
2017-Jul-14 21:30N 36°25' W 008°59'714.6
2017-Jul-14 21:00N 36°27' W 009°08'714.4
2017-Jul-14 20:30N 36°28' W 009°16'714.0
2017-Jul-14 20:00N 36°32' W 009°24'714.5
2017-Jul-14 19:30N 36°37' W 009°30'714.7
2017-Jul-14 19:00N 36°43' W 009°36'714.4
2017-Jul-14 18:31N 36°49' W 009°39'714.8
2017-Jul-14 18:00N 36°57' W 009°42'815.1
2017-Jul-14 17:30N 37°04' W 009°45'815.2
2017-Jul-14 17:01N 37°11' W 009°47'815.1
2017-Jul-14 16:30N 37°18' W 009°49'1515.0
2017-Jul-14 15:30N 37°33' W 009°51'814.9
2017-Jul-14 15:00N 37°41' W 009°53'815.1
2017-Jul-14 14:30N 37°48' W 009°56'714.7
2017-Jul-14 14:01N 37°55' W 009°58'714.9
2017-Jul-14 13:30N 38°02' W 010°01'714.9
2017-Jul-14 13:00N 38°09' W 010°03'714.9
2017-Jul-14 12:30N 38°17' W 010°05'714.4
2017-Jul-14 12:00N 38°24' W 010°07'714.2
2017-Jul-14 11:30N 38°31' W 010°09'714.1
2017-Jul-14 11:00N 38°38' W 010°11'714.1
2017-Jul-14 10:30N 38°45' W 010°12'714.4
2017-Jul-14 10:00N 38°52' W 010°12'714.4
2017-Jul-14 09:30N 38°59' W 010°12'714.3
2017-Jul-14 09:00N 39°06' W 010°12'714.3
2017-Jul-14 08:30N 39°13' W 010°12'713.7
2017-Jul-14 08:00N 39°20' W 010°12'713.8
2017-Jul-14 07:30N 39°27' W 010°12'713.9
2017-Jul-14 07:00N 39°34' W 010°12'713.9
2017-Jul-14 06:30N 39°41' W 010°13'714.9
2017-Jul-14 06:00N 39°48' W 010°12'815.0
2017-Jul-14 05:30N 39°56' W 010°12'815.2
2017-Jul-14 05:01N 40°03' W 010°12'815.1
2017-Jul-14 04:30N 40°11' W 010°12'714.6
2017-Jul-14 04:00N 40°18' W 010°11'714.8
2017-Jul-14 03:30N 40°26' W 010°12'815.1
2017-Jul-14 03:00N 40°33' W 010°12'815.1
2017-Jul-14 02:30N 40°41' W 010°12'815.0
2017-Jul-14 02:00N 40°48' W 010°12'815.0
2017-Jul-14 01:28N 40°56' W 010°12'714.9
2017-Jul-14 01:00N 41°03' W 010°12'815.1
2017-Jul-14 00:30N 41°11' W 010°12'2915.1
2017-Jul-13 22:35N 41°40' W 010°12'215.6
2017-Jul-13 22:29N 41°41' W 010°12'1615.2
2017-Jul-13 21:28N 41°57' W 010°12'60913.5
2017-Jul-12 00:26N 50°13' W 001°43'512.3
2017-Jul-12 00:00N 50°15' W 001°35'611.4
2017-Jul-11 23:30N 50°16' W 001°26'710.9
2017-Jul-11 22:51N 50°18' W 001°16'2710.2
2017-Jul-11 20:12N 50°25' W 000°35'512.0
2017-Jul-11 19:45N 50°27' W 000°27'312.8
2017-Jul-11 19:30N 50°27' W 000°22'713.6
2017-Jul-11 19:00N 50°29' W 000°12'714.3
2017-Jul-11 18:30N 50°30' W 000°01'714.7
2017-Jul-11 18:00N 50°33' E 000°10'3814.0
2017-Jul-11 15:20N 50°50' E 001°03'412.5
2017-Jul-11 15:00N 50°53' E 001°07'612.1
2017-Jul-11 14:30N 50°57' E 001°14'611.2
2017-Jul-11 14:00N 51°01' E 001°21'510.6
2017-Jul-11 13:30N 51°04' E 001°27'510.2
2017-Jul-11 13:00N 51°08' E 001°33'611.3
2017-Jul-11 12:30N 51°11' E 001°40'612.0
2017-Jul-11 12:00N 51°15' E 001°47'713.1
2017-Jul-11 11:30N 51°21' E 001°53'612.8
2017-Jul-11 11:00N 51°24' E 002°02'713.5
2017-Jul-11 10:31N 51°22' E 002°11'713.4
2017-Jul-11 10:00N 51°21' E 002°22'714.5
2017-Jul-11 09:31N 51°23' E 002°34'713.7
2017-Jul-11 09:01N 51°22' E 002°45'612.6
2017-Jul-11 08:31N 51°23' E 002°55'714.0
2017-Jul-11 08:01N 51°24' E 003°06'714.9
2017-Jul-11 07:31N 51°25' E 003°17'815.4
2017-Jul-11 07:01N 51°25' E 003°30'5 9.8
2017-Jul-11 06:30N 51°26' E 003°38'713.9
2017-Jul-11 06:00N 51°22' E 003°46'714.2
2017-Jul-11 05:30N 51°24' E 003°57'3 6.9
2017-Jul-11 05:00N 51°23' E 004°02'612.6
2017-Jul-11 04:30N 51°24' E 004°12'4 8.1
2017-Jul-11 04:00N 51°21' E 004°17'0 0.1
2017-Jul-11 03:30N 51°21' E 004°17'0 0.0
2017-Jul-11 03:00N 51°21' E 004°17'1 2.1
2017-Jul-11 02:30N 51°20' E 004°18'4 7.2
2017-Jul-11 02:00N 51°17' E 004°21'1 2.8
2017-Jul-11 01:29N 51°15' E 004°22'0 0.0
2017-Jul-11 01:00N 51°15' E 004°22'0 0.0
2017-Jul-11 00:29N 51°15' E 004°22'0 0.0
2017-Jul-10 23:57N 51°15' E 004°22'0 0.0
2017-Jul-10 23:26N 51°15' E 004°22'0 0.0
2017-Jul-10 23:00N 51°15' E 004°22'0 0.0
2017-Jul-10 22:29N 51°15' E 004°22'0 0.0
2017-Jul-10 21:59N 51°15' E 004°22'0 0.0
2017-Jul-10 21:29N 51°15' E 004°22'0 0.0
2017-Jul-10 20:59N 51°15' E 004°22'0 0.0
2017-Jul-10 20:29N 51°15' E 004°22'0 0.0
2017-Jul-10 19:56N 51°15' E 004°22'0 0.0
2017-Jul-10 19:29N 51°15' E 004°22'0 0.0
2017-Jul-10 18:59N 51°15' E 004°22'0 0.0
2017-Jul-10 18:29N 51°15' E 004°22'0 0.0
2017-Jul-10 17:59N 51°15' E 004°22'0 0.0
2017-Jul-10 17:26N 51°15' E 004°22'0 0.0
2017-Jul-10 16:59N 51°15' E 004°22'0 0.0
2017-Jul-10 16:30N 51°15' E 004°22'0 0.0
2017-Jul-10 15:59N 51°15' E 004°22'0 0.0
2017-Jul-10 15:30N 51°15' E 004°22'0 0.0
2017-Jul-10 14:59N 51°15' E 004°22'0 0.0
2017-Jul-10 14:29N 51°15' E 004°22'0 0.0
2017-Jul-10 13:59N 51°15' E 004°22'0 0.0
2017-Jul-10 13:29N 51°15' E 004°22'0 0.0
2017-Jul-10 12:59N 51°15' E 004°22'0 0.0
2017-Jul-10 12:29N 51°15' E 004°22'0 0.0
2017-Jul-10 11:59N 51°15' E 004°22'0 0.0
2017-Jul-10 11:26N 51°15' E 004°22'0 0.0
2017-Jul-10 10:59N 51°15' E 004°22'0 0.0
2017-Jul-10 10:26N 51°15' E 004°22'0 0.0
2017-Jul-10 09:59N 51°15' E 004°22'0 0.0
2017-Jul-10 09:29N 51°15' E 004°22'0 0.0
2017-Jul-10 08:56N 51°15' E 004°22'0 0.0
2017-Jul-10 08:29N 51°15' E 004°22'0 0.0
2017-Jul-10 07:53N 51°15' E 004°22'0 0.0
2017-Jul-10 07:29N 51°15' E 004°22'0 0.0
2017-Jul-10 06:59N 51°15' E 004°22'0 0.0
2017-Jul-10 06:29N 51°15' E 004°22'0 0.0
2017-Jul-10 05:56N 51°15' E 004°22'0 0.0
2017-Jul-10 05:30N 51°15' E 004°22'0 0.0
2017-Jul-10 05:00N 51°15' E 004°22'0 0.0
2017-Jul-10 04:26N 51°15' E 004°22'0 0.0
2017-Jul-10 03:56N 51°15' E 004°22'0 0.0
2017-Jul-10 03:30N 51°15' E 004°22'0 0.0
2017-Jul-10 02:56N 51°15' E 004°22'0 0.0
2017-Jul-10 02:23N 51°15' E 004°22'0 0.0
2017-Jul-10 02:00N 51°15' E 004°22'0 0.0
2017-Jul-10 01:29N 51°15' E 004°22'0 0.0
2017-Jul-10 00:59N 51°15' E 004°22'0 0.0
2017-Jul-10 00:29N 51°15' E 004°22'0 0.0
2017-Jul-09 23:56N 51°15' E 004°22'0 0.0
2017-Jul-09 23:26N 51°15' E 004°22'0 0.0
2017-Jul-09 22:59N 51°15' E 004°22'0 0.0
2017-Jul-09 22:29N 51°15' E 004°22'0 0.0
2017-Jul-09 21:59N 51°15' E 004°22'0 0.0
2017-Jul-09 21:26N 51°15' E 004°22'0 0.0
2017-Jul-09 20:59N 51°15' E 004°22'0 0.0
2017-Jul-09 20:29N 51°15' E 004°22'0 0.0
2017-Jul-09 19:56N 51°15' E 004°22'0 0.0
2017-Jul-09 19:29N 51°15' E 004°22'0 0.0
2017-Jul-09 18:59N 51°15' E 004°22'0 0.0
2017-Jul-09 18:29N 51°15' E 004°22'0 0.0
2017-Jul-09 17:59N 51°15' E 004°22'0 0.0
2017-Jul-09 17:29N 51°15' E 004°22'0 0.0
2017-Jul-09 16:59N 51°15' E 004°22'0 0.0
2017-Jul-09 16:29N 51°15' E 004°22'0 0.0
2017-Jul-09 15:59N 51°15' E 004°22'0 0.0
2017-Jul-09 15:29N 51°15' E 004°22'0 0.0
2017-Jul-09 14:56N 51°15' E 004°22'0 0.0
2017-Jul-09 14:29N 51°15' E 004°22'0 0.0
2017-Jul-09 14:00N 51°15' E 004°22'0 0.0
2017-Jul-09 13:26N 51°15' E 004°22'0 0.0
2017-Jul-09 13:00N 51°15' E 004°22'0 0.0
2017-Jul-09 12:29N 51°15' E 004°22'0 0.0
2017-Jul-09 11:59N 51°15' E 004°22'0 0.0
2017-Jul-09 11:29N 51°15' E 004°22'0 0.0
2017-Jul-09 10:59N 51°15' E 004°22'0 0.0
2017-Jul-09 10:27N 51°15' E 004°22'0 0.0
2017-Jul-09 09:59N 51°15' E 004°22'0 0.0
2017-Jul-09 09:30N 51°15' E 004°22'0 0.0
2017-Jul-09 08:59N 51°15' E 004°22'0 0.0
2017-Jul-09 08:26N 51°15' E 004°22'0 0.0
2017-Jul-09 07:59N 51°15' E 004°22'0 0.0
2017-Jul-09 07:29N 51°15' E 004°22'0 0.0
2017-Jul-09 06:59N 51°15' E 004°22'0 0.0
2017-Jul-09 06:29N 51°15' E 004°22'0 0.0
2017-Jul-09 06:00N 51°15' E 004°22'0 0.0
2017-Jul-09 05:29N 51°15' E 004°22'0 0.0
2017-Jul-09 04:59N 51°15' E 004°22'0 0.0
2017-Jul-09 04:26N 51°15' E 004°22'0 0.0
2017-Jul-09 03:59N 51°15' E 004°22'0 0.0
2017-Jul-09 03:29N 51°15' E 004°22'0 0.0
2017-Jul-09 02:59N 51°15' E 004°22'0 0.0
2017-Jul-09 02:29N 51°15' E 004°22'0 0.0
2017-Jul-09 01:59N 51°15' E 004°22'0 0.0
2017-Jul-09 01:29N 51°15' E 004°22'0 0.0
2017-Jul-09 00:59N 51°15' E 004°22'0 0.0
2017-Jul-09 00:29N 51°15' E 004°22'0 0.0
2017-Jul-08 23:59N 51°15' E 004°22'0 0.0
2017-Jul-08 23:29N 51°15' E 004°22'0 0.0
2017-Jul-08 22:59N 51°15' E 004°22'0 0.0
2017-Jul-08 22:30N 51°15' E 004°22'0 0.1
2017-Jul-08 22:00N 51°15' E 004°22'0 0.9
2017-Jul-08 21:28N 51°15' E 004°21'0 0.0
2017-Jul-08 20:55N 51°15' E 004°21'0 0.0
2017-Jul-08 20:28N 51°15' E 004°21'0 0.0
2017-Jul-08 19:58N 51°15' E 004°21'0 0.0
2017-Jul-08 19:28N 51°15' E 004°21'0 0.0
2017-Jul-08 18:58N 51°15' E 004°21'0 0.0
2017-Jul-08 18:28N 51°15' E 004°21'0 0.0
2017-Jul-08 17:58N 51°15' E 004°21'0 0.0
2017-Jul-08 17:25N 51°15' E 004°21'0 0.0
2017-Jul-08 16:58N 51°15' E 004°21'0 0.0
2017-Jul-08 16:25N 51°15' E 004°21'0 0.0
2017-Jul-08 15:55N 51°15' E 004°21'0 0.0
2017-Jul-08 15:25N 51°15' E 004°21'0 0.0
2017-Jul-08 14:58N 51°15' E 004°21'0 0.0
2017-Jul-08 13:58N 51°15' E 004°21'0 0.0
2017-Jul-08 13:22N 51°15' E 004°21'0 0.0
2017-Jul-08 12:58N 51°15' E 004°21'0 0.0
2017-Jul-08 12:28N 51°15' E 004°21'0 0.0
2017-Jul-08 11:58N 51°15' E 004°21'0 0.0
2017-Jul-08 11:28N 51°15' E 004°21'0 0.0
2017-Jul-08 10:58N 51°15' E 004°21'0 0.0
2017-Jul-08 10:28N 51°15' E 004°21'0 0.0
2017-Jul-08 09:58N 51°15' E 004°21'0 0.0
2017-Jul-08 09:28N 51°15' E 004°21'0 0.0
2017-Jul-08 08:55N 51°15' E 004°21'0 0.0
2017-Jul-08 08:28N 51°15' E 004°21'0 0.0
2017-Jul-08 07:58N 51°15' E 004°21'0 0.0
2017-Jul-08 07:28N 51°15' E 004°21'0 0.0
2017-Jul-08 06:58N 51°15' E 004°21'0 0.0
2017-Jul-08 06:25N 51°15' E 004°21'0 0.0
2017-Jul-08 05:58N 51°15' E 004°21'0 0.0
2017-Jul-08 05:28N 51°15' E 004°21'0 0.0
2017-Jul-08 04:58N 51°15' E 004°21'0 0.0
2017-Jul-08 04:28N 51°15' E 004°21'0 0.0
2017-Jul-08 03:58N 51°15' E 004°21'  

Dump ship's entire track history